OM6ACB-6 Weather Reports


Display with metric or nautical units.
time (UTC)temp
F
wind
direction
speed
MPH
gust
MPH
rain 1hr
in
rain 24hr
in
rain mn
in
humidity
%
barometer
mb
20221128141909 37 0 56.0 56.0 0.00 0.00 0.00 75 1012.9
20221128140909 37 0 56.0 56.0 0.00 0.00 0.00 74 1012.8
20221128135908 38 0 56.0 56.0 0.00 0.00 0.00 73 1013.0
20221128134908 38 0 56.0 56.0 0.00 0.00 0.00 72 1013.1
20221128133908 40 0 56.0 56.0 0.00 0.00 0.00 70 1013.0
20221128132908 40 0 56.0 56.0 0.00 0.00 0.00 70 1013.1
20221128131907 41 0 56.0 56.0 0.00 0.00 0.00 70 1013.2
20221128130907 40 0 56.0 56.0 0.00 0.00 0.00 72 1013.3
20221128125907 39 0 56.0 56.0 0.00 0.00 0.00 72 1013.3
20221128124906 39 0 56.0 56.0 0.00 0.00 0.00 73 1013.3
20221128123906 39 0 56.0 56.0 0.00 0.00 0.00 73 1013.3
20221128122906 39 0 56.0 56.0 0.00 0.00 0.00 73 1013.4
20221128121905 39 0 56.0 56.0 0.00 0.00 0.00 74 1013.4
20221128120905 39 0 56.0 56.0 0.00 0.00 0.00 74 1013.4
20221128115905 39 0 56.0 56.0 0.00 0.00 0.00 74 1013.6
20221128114905 39 0 56.0 56.0 0.00 0.00 0.00 75 1013.7
20221128113904 39 0 56.0 56.0 0.00 0.00 0.00 76 1013.7
20221128112904 39 0 56.0 56.0 0.00 0.00 0.00 79 1013.7
20221128111904 38 0 56.0 56.0 0.00 0.00 0.00 80 1013.7
20221128110903 38 0 56.0 56.0 0.00 0.00 0.00 82 1013.8
20221128105903 37 0 56.0 56.0 0.00 0.00 0.00 83 1013.9
20221128104903 37 0 56.0 56.0 0.00 0.00 0.00 83 1013.9
20221128103903 37 0 56.0 56.0 0.00 0.00 0.00 83 1014.2
20221128102902 37 0 56.0 56.0 0.00 0.00 0.00 83 1014.3
20221128101902 37 0 56.0 56.0 0.00 0.00 0.00 83 1014.2
20221128100902 37 0 56.0 56.0 0.00 0.00 0.00 83 1014.4
20221128095901 37 0 56.0 56.0 0.00 0.00 0.00 83 1014.3
20221128094901 37 0 56.0 56.0 0.00 0.00 0.00 85 1014.5
20221128093901 37 0 56.0 56.0 0.00 0.00 0.00 86 1014.6
20221128092901 35 0 52.0 56.0 0.00 0.00 0.00 44 1013.6
20221127211715 34 0 56.0 56.0 0.00 0.00 0.00 92 1017.8
20221127210715 34 0 56.0 56.0 0.00 0.00 0.00 92 1017.9
20221127205715 34 0 56.0 56.0 0.00 0.00 0.00 92 1018.0
20221127204715 33 0 56.0 56.0 0.00 0.00 0.00 92 1017.9
20221127203714 33 0 56.0 56.0 0.00 0.00 0.00 92 1017.9
20221127202714 33 0 56.0 56.0 0.00 0.00 0.00 92 1018.1
20221127201714 33 0 56.0 56.0 0.00 0.00 0.00 92 1018.1
20221127200713 33 0 56.0 56.0 0.00 0.00 0.00 92 1018.1
20221127195713 33 0 56.0 56.0 0.00 0.00 0.00 92 1018.0
20221127194713 33 0 56.0 56.0 0.00 0.00 0.00 92 1018.2
20221127193712 33 0 56.0 56.0 0.00 0.00 0.00 92 1018.3
20221127192712 33 0 56.0 56.0 0.00 0.00 0.00 92 1018.4
20221127191712 33 0 56.0 56.0 0.00 0.00 0.00 92 1018.4
20221127190712 33 0 56.0 56.0 0.00 0.00 0.00 92 1018.4
20221127185711 32 0 56.0 56.0 0.00 0.00 0.00 92 1018.3
20221127184711 32 0 56.0 56.0 0.00 0.00 0.00 91 1018.4
20221127183711 32 0 56.0 56.0 0.00 0.00 0.00 91 1018.3
20221127182710 32 0 56.0 56.0 0.00 0.00 0.00 91 1018.2
20221127181710 32 0 56.0 56.0 0.00 0.00 0.00 91 1018.5
20221127180710 32 0 56.0 56.0 0.00 0.00 0.00 91 1018.5
20221127175710 32 0 56.0 56.0 0.00 0.00 0.00 96 1018.5
20221127174709 32 0 56.0 56.0 0.00 0.00 0.00 96 1018.5
20221127173709 32 0 56.0 56.0 0.00 0.00 0.00 96 1018.5
20221127172709 32 0 56.0 56.0 0.00 0.00 0.00 96 1018.5
20221127171708 32 0 56.0 56.0 0.00 0.00 0.00 96 1018.7
20221127170708 32 0 56.0 56.0 0.00 0.00 0.00 89 1018.8
20221127165708 32 0 56.0 56.0 0.00 0.00 0.00 89 1018.8
20221127164707 32 0 56.0 56.0 0.00 0.00 0.00 89 1018.8
20221127163707 32 0 56.0 56.0 0.00 0.00 0.00 88 1018.9
20221127162707 32 0 56.0 56.0 0.00 0.00 0.00 87 1018.9
20221127161707 32 0 56.0 56.0 0.00 0.00 0.00 87 1018.8
20221127160706 32 0 56.0 56.0 0.00 0.00 0.00 86 1019.0
20221127155706 33 0 56.0 56.0 0.00 0.00 0.00 85 1019.1
20221127154706 34 0 56.0 56.0 0.00 0.00 0.00 84 1019.0
20221127153706 35 0 56.0 56.0 0.00 0.00 0.00 83 1019.1
20221127152705 35 0 56.0 56.0 0.00 0.00 0.00 82 1019.0
20221127151705 36 0 56.0 56.0 0.00 0.00 0.00 80 1019.3
20221127150705 38 0 56.0 56.0 0.00 0.00 0.00 78 1019.1
20221127145704 39 0 56.0 56.0 0.00 0.00 0.00 77 1019.1
20221127144704 40 0 56.0 56.0 0.00 0.00 0.00 75 1019.1
20221127143704 41 0 56.0 56.0 0.00 0.00 0.00 75 1019.2
20221127142703 42 0 56.0 56.0 0.00 0.00 0.00 74 1019.0